Time;durP1;ratioP1;P1;durP2;ratioP2;P2;SDS_P1;SDS_P2;PMS_P1;PMS_P2;Temp;Humidity;BMP_temperature;BMP_pressure;BME280_temperature;BME280_humidity;BME280_pressure;Samples;Min_cycle;Max_cycle;Signal;HPM_P1;HPM_P2
2023/04/26 00:00:45;;;;;;;7.60;2.28;;;;;;;;;;5031356;28;20275;-72
2023/04/26 00:03:11;;;;;;;11.88;2.80;;;;;;;;;;5029770;28;20497;-72
2023/04/26 00:05:37;;;;;;;8.32;3.00;;;;;;;;;;5031834;28;20089;-73
2023/04/26 00:08:03;;;;;;;8.55;2.05;;;;;;;;;;5032296;28;20104;-72
2023/04/26 00:10:28;;;;;;;14.10;3.38;;;;;;;;;;5031227;28;20066;-72
2023/04/26 00:12:53;;;;;;;10.55;2.88;;;;;;;;;;5030008;28;20108;-72
2023/04/26 00:15:18;;;;;;;7.90;2.60;;;;;;;;;;5027724;28;20024;-73
2023/04/26 00:17:43;;;;;;;7.35;2.53;;;;;;;;;;5030824;28;20065;-72
2023/04/26 00:20:11;;;;;;;9.07;2.70;;;;;;;;;;5029995;28;20029;-72
2023/04/26 00:22:36;;;;;;;10.00;2.58;;;;;;;;;;5028609;28;20021;-72
2023/04/26 00:25:02;;;;;;;7.00;2.33;;;;;;;;;;5030249;28;20213;-72
2023/04/26 00:27:27;;;;;;;6.03;2.25;;;;;;;;;;5029359;28;20358;-72
2023/04/26 00:29:52;;;;;;;6.45;2.20;;;;;;;;;;5028729;28;20029;-72
2023/04/26 00:32:17;;;;;;;5.15;2.22;;;;;;;;;;5031170;28;20068;-72
2023/04/26 00:34:42;;;;;;;7.27;2.23;;;;;;;;;;5030772;28;20029;-72
2023/04/26 00:37:08;;;;;;;7.95;2.75;;;;;;;;;;5034564;28;20272;-72
2023/04/26 00:39:33;;;;;;;7.00;2.90;;;;;;;;;;5033126;28;20033;-72
2023/04/26 00:41:58;;;;;;;7.65;2.58;;;;;;;;;;5031547;28;20398;-72
2023/04/26 00:44:23;;;;;;;10.07;2.58;;;;;;;;;;5030762;28;20143;-72
2023/04/26 00:46:50;;;;;;;13.27;2.80;;;;;;;;;;5034473;28;20032;-72
2023/04/26 00:49:15;;;;;;;6.75;2.47;;;;;;;;;;5026907;28;20375;-72
2023/04/26 00:51:44;;;;;;;8.77;2.95;;;;;;;;;;5030857;28;20025;-72
2023/04/26 00:54:09;;;;;;;7.38;2.25;;;;;;;;;;5030107;28;20056;-72
2023/04/26 00:56:35;;;;;;;5.43;2.40;;;;;;;;;;5031343;28;20045;-72
2023/04/26 00:59:01;;;;;;;8.98;2.20;;;;;;;;;;5030938;28;20018;-72
2023/04/26 01:01:27;;;;;;;11.65;2.63;;;;;;;;;;5023332;28;20040;-72
2023/04/26 01:03:52;;;;;;;10.18;3.08;;;;;;;;;;5024976;28;20017;-72
2023/04/26 01:06:17;;;;;;;8.05;2.90;;;;;;;;;;5032363;28;20475;-72
2023/04/26 01:08:42;;;;;;;5.95;2.90;;;;;;;;;;5031106;28;20029;-72
2023/04/26 01:11:07;;;;;;;9.87;2.70;;;;;;;;;;5029222;28;20022;-72
2023/04/26 01:13:33;;;;;;;5.97;2.88;;;;;;;;;;5031842;28;21016;-72
2023/04/26 01:15:58;;;;;;;14.10;2.80;;;;;;;;;;5030077;28;20566;-72
2023/04/26 01:18:24;;;;;;;11.18;2.95;;;;;;;;;;5029223;28;20308;-72
2023/04/26 01:20:51;;;;;;;10.90;3.60;;;;;;;;;;5032809;28;20383;-72
2023/04/26 01:23:17;;;;;;;6.15;2.58;;;;;;;;;;5027617;28;20029;-72
2023/04/26 01:25:42;;;;;;;10.48;2.92;;;;;;;;;;5029557;28;20037;-72
2023/04/26 01:28:07;;;;;;;13.82;3.55;;;;;;;;;;5029835;28;20016;-72
2023/04/26 01:30:32;;;;;;;12.43;2.50;;;;;;;;;;5030610;28;20501;-72
2023/04/26 01:32:57;;;;;;;8.57;2.30;;;;;;;;;;5029412;28;20025;-72
2023/04/26 01:35:22;;;;;;;13.15;3.10;;;;;;;;;;5027358;28;20025;-72
2023/04/26 01:37:48;;;;;;;10.25;2.88;;;;;;;;;;5029223;28;20155;-72
2023/04/26 01:40:13;;;;;;;8.48;2.30;;;;;;;;;;5031977;28;20021;-72
2023/04/26 01:42:38;;;;;;;8.48;2.70;;;;;;;;;;5029908;28;20390;-72
2023/04/26 01:45:04;;;;;;;9.17;3.00;;;;;;;;;;5028791;28;20033;-72
2023/04/26 01:47:29;;;;;;;6.00;2.17;;;;;;;;;;5028332;28;20278;-72
2023/04/26 01:49:55;;;;;;;11.23;2.70;;;;;;;;;;5027537;28;20497;-72
2023/04/26 01:52:21;;;;;;;8.65;2.58;;;;;;;;;;5027697;28;20022;-72
2023/04/26 01:54:46;;;;;;;8.73;3.13;;;;;;;;;;5028144;28;20010;-72
2023/04/26 01:57:11;;;;;;;9.47;2.53;;;;;;;;;;5029565;28;20020;-72
2023/04/26 01:59:36;;;;;;;6.57;2.22;;;;;;;;;;5029123;28;20764;-72
2023/04/26 02:02:02;;;;;;;11.90;2.63;;;;;;;;;;5029597;28;20040;-72
2023/04/26 02:04:27;;;;;;;14.35;2.65;;;;;;;;;;5028234;28;20271;-72
2023/04/26 02:06:52;;;;;;;7.57;2.47;;;;;;;;;;5029681;28;20049;-72
2023/04/26 02:09:17;;;;;;;10.10;2.72;;;;;;;;;;5031823;28;20021;-72
2023/04/26 02:11:43;;;;;;;10.68;2.70;;;;;;;;;;5028635;28;20432;-72
2023/04/26 02:14:08;;;;;;;9.43;2.75;;;;;;;;;;5029242;28;20029;-72
2023/04/26 02:16:33;;;;;;;4.25;2.53;;;;;;;;;;5029560;28;20083;-72
2023/04/26 02:18:58;;;;;;;8.70;2.92;;;;;;;;;;5029442;28;20025;-72
2023/04/26 02:21:24;;;;;;;12.48;2.58;;;;;;;;;;5030916;28;20509;-72
2023/04/26 02:23:49;;;;;;;10.02;2.42;;;;;;;;;;5026227;28;20033;-72
2023/04/26 02:26:14;;;;;;;15.25;2.65;;;;;;;;;;5028897;28;20017;-72
2023/04/26 02:28:40;;;;;;;12.95;2.50;;;;;;;;;;5028528;28;20025;-72
2023/04/26 02:31:06;;;;;;;16.23;3.20;;;;;;;;;;5028661;28;20018;-72
2023/04/26 02:33:31;;;;;;;10.65;2.67;;;;;;;;;;5031382;28;20108;-72
2023/04/26 02:35:56;;;;;;;8.93;3.15;;;;;;;;;;5027097;28;20018;-73
2023/04/26 02:38:22;;;;;;;10.90;2.83;;;;;;;;;;5028818;28;20014;-72
2023/04/26 02:40:47;;;;;;;13.98;2.95;;;;;;;;;;5029037;28;20029;-72
2023/04/26 02:43:12;;;;;;;14.17;2.90;;;;;;;;;;5028022;28;20050;-72
2023/04/26 02:45:41;;;;;;;6.03;2.58;;;;;;;;;;5026908;28;20347;-72
2023/04/26 02:48:06;;;;;;;6.18;2.25;;;;;;;;;;5028380;28;20018;-72
2023/04/26 02:50:32;;;;;;;10.47;3.20;;;;;;;;;;5029262;28;20030;-72
2023/04/26 02:52:57;;;;;;;10.53;3.20;;;;;;;;;;5027637;28;20764;-72
2023/04/26 02:55:22;;;;;;;13.80;3.58;;;;;;;;;;5029381;28;20264;-72
2023/04/26 02:57:47;;;;;;;6.97;2.40;;;;;;;;;;5033365;28;20467;-72
2023/04/26 03:00:13;;;;;;;10.75;2.85;;;;;;;;;;5031985;28;20327;-72
2023/04/26 03:02:38;;;;;;;6.65;2.65;;;;;;;;;;5029890;28;20051;-72
2023/04/26 03:05:03;;;;;;;20.23;2.72;;;;;;;;;;5033903;28;20031;-72
2023/04/26 03:07:28;;;;;;;9.57;3.03;;;;;;;;;;5031054;28;20049;-72
2023/04/26 03:09:54;;;;;;;14.30;4.28;;;;;;;;;;5033911;28;20029;-72
2023/04/26 03:12:19;;;;;;;10.18;2.85;;;;;;;;;;5031595;28;20238;-72
2023/04/26 03:14:44;;;;;;;17.83;3.43;;;;;;;;;;5031448;28;20364;-72
2023/04/26 03:17:09;;;;;;;8.03;2.80;;;;;;;;;;5032112;28;20264;-72
2023/04/26 03:19:34;;;;;;;7.97;3.17;;;;;;;;;;5031002;28;20346;-72
2023/04/26 03:22:00;;;;;;;7.13;3.38;;;;;;;;;;5033597;28;20482;-72
2023/04/26 03:24:25;;;;;;;7.65;3.42;;;;;;;;;;5031118;28;20056;-72
2023/04/26 03:26:51;;;;;;;7.65;3.58;;;;;;;;;;5031514;28;20036;-72
2023/04/26 03:29:16;;;;;;;7.85;3.00;;;;;;;;;;5029961;28;20212;-72
2023/04/26 03:31:41;;;;;;;10.90;2.95;;;;;;;;;;5031893;28;20087;-73
2023/04/26 03:34:07;;;;;;;7.17;2.83;;;;;;;;;;5029729;28;20009;-73
2023/04/26 03:36:33;;;;;;;8.52;2.67;;;;;;;;;;5030832;28;20684;-72
2023/04/26 03:38:58;;;;;;;12.18;3.38;;;;;;;;;;5031867;28;20136;-72
2023/04/26 03:41:23;;;;;;;5.85;2.47;;;;;;;;;;5031767;28;20095;-72
2023/04/26 03:43:49;;;;;;;13.70;3.40;;;;;;;;;;5031550;28;20048;-72
2023/04/26 03:46:14;;;;;;;5.30;3.15;;;;;;;;;;5027555;28;20465;-72
2023/04/26 03:48:40;;;;;;;5.57;2.42;;;;;;;;;;5030170;28;20044;-72
2023/04/26 03:51:05;;;;;;;10.80;2.70;;;;;;;;;;5029328;28;20371;-72
2023/04/26 03:53:31;;;;;;;6.70;2.85;;;;;;;;;;5031306;28;20009;-72
2023/04/26 03:55:56;;;;;;;8.90;2.60;;;;;;;;;;5032478;28;20024;-72
2023/04/26 03:58:22;;;;;;;5.60;3.03;;;;;;;;;;5030381;28;20021;-72
2023/04/26 04:00:47;;;;;;;9.57;2.80;;;;;;;;;;5031302;28;20017;-72
2023/04/26 04:03:12;;;;;;;5.32;2.80;;;;;;;;;;5029356;28;20022;-72
2023/04/26 04:05:37;;;;;;;13.87;2.90;;;;;;;;;;5033484;28;20026;-72
2023/04/26 04:08:02;;;;;;;11.98;2.85;;;;;;;;;;5029391;28;20279;-72
2023/04/26 04:10:28;;;;;;;7.70;2.97;;;;;;;;;;5033689;28;20025;-72
2023/04/26 04:12:53;;;;;;;10.75;3.25;;;;;;;;;;5032766;28;20382;-72
2023/04/26 04:15:19;;;;;;;8.47;2.70;;;;;;;;;;5031863;28;20023;-72
2023/04/26 04:17:44;;;;;;;9.75;2.90;;;;;;;;;;5030861;28;20272;-72
2023/04/26 04:20:10;;;;;;;10.40;3.97;;;;;;;;;;5030992;28;20029;-72
2023/04/26 04:22:35;;;;;;;10.07;2.70;;;;;;;;;;5032149;28;20041;-72
2023/04/26 04:25:00;;;;;;;12.68;3.15;;;;;;;;;;5032517;28;20064;-72
2023/04/26 04:27:26;;;;;;;11.85;3.28;;;;;;;;;;5029899;28;20024;-72
2023/04/26 04:29:52;;;;;;;8.57;2.97;;;;;;;;;;5034391;28;20022;-72
2023/04/26 04:32:17;;;;;;;12.18;3.33;;;;;;;;;;5031080;28;20184;-72
2023/04/26 04:34:43;;;;;;;8.52;3.85;;;;;;;;;;5029922;28;20036;-72
2023/04/26 04:37:08;;;;;;;10.38;3.63;;;;;;;;;;5030886;28;20102;-72
2023/04/26 04:39:34;;;;;;;12.50;3.88;;;;;;;;;;5030397;28;20025;-72
2023/04/26 04:41:59;;;;;;;5.22;3.00;;;;;;;;;;5031613;28;20410;-72
2023/04/26 04:44:25;;;;;;;15.88;3.90;;;;;;;;;;5030304;28;20393;-72
2023/04/26 04:46:51;;;;;;;8.85;3.10;;;;;;;;;;5031486;28;20527;-72
2023/04/26 04:49:17;;;;;;;10.20;3.47;;;;;;;;;;5030288;28;20127;-72
2023/04/26 04:51:42;;;;;;;10.93;3.67;;;;;;;;;;5031079;28;20029;-72
2023/04/26 04:54:08;;;;;;;12.63;3.67;;;;;;;;;;5029379;28;20093;-72
2023/04/26 04:56:33;;;;;;;12.57;4.38;;;;;;;;;;5028962;28;20386;-72
2023/04/26 04:58:58;;;;;;;17.95;4.40;;;;;;;;;;5027720;28;20553;-72
2023/04/26 05:01:24;;;;;;;12.20;3.70;;;;;;;;;;5029789;28;20033;-72
2023/04/26 05:03:49;;;;;;;11.77;3.17;;;;;;;;;;5028728;28;20603;-72
2023/04/26 05:06:14;;;;;;;17.88;3.80;;;;;;;;;;5029244;28;20021;-72
2023/04/26 05:08:39;;;;;;;10.67;3.97;;;;;;;;;;5030803;28;20028;-72
2023/04/26 05:11:04;;;;;;;13.52;4.82;;;;;;;;;;5029394;28;20279;-72
2023/04/26 05:13:30;;;;;;;14.25;4.45;;;;;;;;;;5029847;28;20104;-72
2023/04/26 05:15:55;;;;;;;19.75;4.47;;;;;;;;;;5029482;28;20033;-72
2023/04/26 05:18:20;;;;;;;17.47;4.10;;;;;;;;;;5029716;28;20127;-72
2023/04/26 05:20:45;;;;;;;13.27;5.35;;;;;;;;;;5029609;28;20671;-72
2023/04/26 05:23:11;;;;;;;15.82;4.13;;;;;;;;;;5029154;28;20029;-72
2023/04/26 05:25:36;;;;;;;20.58;5.05;;;;;;;;;;5029149;28;20032;-72
2023/04/26 05:28:01;;;;;;;14.63;4.68;;;;;;;;;;5029674;28;20396;-72
2023/04/26 05:30:27;;;;;;;16.27;4.35;;;;;;;;;;5029383;28;20029;-72
2023/04/26 05:32:52;;;;;;;15.35;4.43;;;;;;;;;;5026924;28;20018;-72
2023/04/26 05:35:17;;;;;;;28.10;5.20;;;;;;;;;;5028880;28;20493;-72
2023/04/26 05:37:42;;;;;;;16.05;6.00;;;;;;;;;;5027546;28;20017;-72
2023/04/26 05:40:08;;;;;;;15.35;4.65;;;;;;;;;;5028442;28;20072;-72
2023/04/26 05:42:33;;;;;;;15.05;5.60;;;;;;;;;;5029507;28;20100;-71
2023/04/26 05:44:59;;;;;;;20.88;5.57;;;;;;;;;;5027741;28;20025;-72
2023/04/26 05:47:24;;;;;;;10.77;4.90;;;;;;;;;;5024291;28;20439;-72
2023/04/26 05:49:49;;;;;;;18.75;5.60;;;;;;;;;;5029442;28;20445;-72
2023/04/26 05:52:15;;;;;;;13.05;4.93;;;;;;;;;;5030446;28;20108;-72
2023/04/26 05:54:40;;;;;;;13.98;4.18;;;;;;;;;;5029929;28;20029;-72
2023/04/26 05:57:05;;;;;;;9.70;3.55;;;;;;;;;;5029845;28;20017;-73
2023/04/26 05:59:35;;;;;;;14.30;5.40;;;;;;;;;;5030050;28;20023;-73
2023/04/26 06:02:00;;;;;;;25.70;6.15;;;;;;;;;;5029162;28;20371;-73
2023/04/26 06:04:25;;;;;;;16.65;4.47;;;;;;;;;;5028670;28;20028;-72
2023/04/26 06:06:50;;;;;;;19.10;4.93;;;;;;;;;;5029460;28;20033;-73
2023/04/26 06:09:16;;;;;;;12.00;4.57;;;;;;;;;;5029869;28;20318;-74
2023/04/26 06:11:41;;;;;;;19.05;6.93;;;;;;;;;;5029838;28;20260;-72
2023/04/26 06:14:06;;;;;;;18.67;6.50;;;;;;;;;;5028811;28;20017;-73
2023/04/26 06:16:31;;;;;;;17.93;6.73;;;;;;;;;;5029420;28;20887;-73
2023/04/26 06:18:56;;;;;;;16.60;6.17;;;;;;;;;;5029792;28;20260;-73
2023/04/26 06:21:21;;;;;;;17.43;6.80;;;;;;;;;;5030610;28;20657;-73
2023/04/26 06:23:47;;;;;;;29.00;5.05;;;;;;;;;;5028912;28;20252;-73
2023/04/26 06:26:12;;;;;;;23.38;7.18;;;;;;;;;;5029662;28;20032;-72
2023/04/26 06:28:37;;;;;;;15.88;6.88;;;;;;;;;;5029042;28;20108;-73
2023/04/26 06:31:02;;;;;;;26.48;8.43;;;;;;;;;;5031944;28;20112;-73
2023/04/26 06:33:27;;;;;;;22.75;8.85;;;;;;;;;;5032493;28;20506;-73
2023/04/26 06:35:52;;;;;;;26.97;9.90;;;;;;;;;;5032564;28;20119;-73
2023/04/26 06:38:18;;;;;;;31.60;12.63;;;;;;;;;;5033805;28;20268;-73
2023/04/26 06:40:43;;;;;;;27.83;10.35;;;;;;;;;;5031559;28;20033;-73
2023/04/26 06:43:08;;;;;;;28.27;10.63;;;;;;;;;;5031953;28;20032;-73
2023/04/26 06:45:33;;;;;;;29.83;10.47;;;;;;;;;;5029067;28;20378;-73
2023/04/26 06:48:03;;;;;;;27.67;11.02;;;;;;;;;;5029829;28;20622;-73
2023/04/26 06:50:28;;;;;;;28.58;9.10;;;;;;;;;;5028864;28;20028;-73
2023/04/26 06:52:53;;;;;;;24.83;10.17;;;;;;;;;;5032436;28;20033;-72
2023/04/26 06:55:19;;;;;;;30.83;10.13;;;;;;;;;;5029467;28;20279;-73
2023/04/26 06:57:44;;;;;;;26.60;9.70;;;;;;;;;;5031104;28;20036;-72
2023/04/26 07:00:09;;;;;;;27.47;11.13;;;;;;;;;;5032056;28;20041;-72
2023/04/26 07:02:34;;;;;;;22.60;9.50;;;;;;;;;;5031981;28;20318;-72
2023/04/26 07:05:00;;;;;;;25.58;9.45;;;;;;;;;;5031113;28;20022;-72
2023/04/26 07:07:26;;;;;;;30.23;9.82;;;;;;;;;;5032790;28;20025;-73
2023/04/26 07:09:51;;;;;;;23.48;9.07;;;;;;;;;;5033019;28;20474;-73
2023/04/26 07:12:16;;;;;;;21.10;9.85;;;;;;;;;;5030899;28;20032;-72
2023/04/26 07:14:42;;;;;;;22.77;8.20;;;;;;;;;;5029904;28;20044;-73
2023/04/26 07:17:07;;;;;;;22.42;7.47;;;;;;;;;;5032266;28;20260;-73
2023/04/26 07:19:32;;;;;;;12.75;7.43;;;;;;;;;;5035288;28;20447;-73
2023/04/26 07:21:58;;;;;;;25.97;9.17;;;;;;;;;;5033409;28;20029;-73
2023/04/26 07:24:23;;;;;;;20.73;9.47;;;;;;;;;;5031925;28;20688;-73
2023/04/26 07:26:48;;;;;;;24.40;8.47;;;;;;;;;;5031881;28;20272;-73
2023/04/26 07:29:13;;;;;;;17.03;7.90;;;;;;;;;;5033339;28;20645;-73
2023/04/26 07:31:38;;;;;;;22.20;8.23;;;;;;;;;;5031200;28;20347;-73
2023/04/26 07:34:03;;;;;;;18.30;8.90;;;;;;;;;;5032989;28;20060;-73
2023/04/26 07:36:30;;;;;;;18.25;8.07;;;;;;;;;;5031409;28;20267;-73
2023/04/26 07:38:55;;;;;;;24.52;8.35;;;;;;;;;;5031696;28;20104;-73
2023/04/26 07:41:20;;;;;;;15.83;6.60;;;;;;;;;;5032451;28;20088;-73
2023/04/26 07:43:45;;;;;;;15.20;6.63;;;;;;;;;;5029920;28;20267;-72
2023/04/26 07:46:11;;;;;;;29.90;9.23;;;;;;;;;;5032292;28;20096;-72
2023/04/26 07:48:36;;;;;;;17.70;7.00;;;;;;;;;;5031602;28;20675;-72
2023/04/26 07:51:08;;;;;;;18.83;6.83;;;;;;;;;;5031770;28;20276;-72
2023/04/26 07:53:33;;;;;;;19.42;6.40;;;;;;;;;;5030851;28;20637;-72
2023/04/26 07:55:58;;;;;;;27.20;7.75;;;;;;;;;;5034760;28;20028;-72
2023/04/26 07:58:23;;;;;;;22.47;7.73;;;;;;;;;;5030700;28;20503;-71
2023/04/26 08:00:49;;;;;;;20.70;7.90;;;;;;;;;;5031364;28;20115;-73
2023/04/26 08:03:17;;;;;;;21.05;7.45;;;;;;;;;;5031193;28;20295;-73
2023/04/26 08:05:42;;;;;;;16.75;6.50;;;;;;;;;;5030490;28;20473;-73
2023/04/26 08:08:08;;;;;;;21.85;6.82;;;;;;;;;;5030021;28;20021;-73
2023/04/26 08:10:33;;;;;;;23.42;6.63;;;;;;;;;;5030620;28;20029;-73
2023/04/26 08:13:02;;;;;;;18.10;7.30;;;;;;;;;;5028644;28;20029;-73
2023/04/26 08:15:27;;;;;;;17.00;6.38;;;;;;;;;;5027660;28;20638;-73
2023/04/26 08:17:52;;;;;;;24.53;9.63;;;;;;;;;;5033373;28;20024;-73
2023/04/26 08:20:17;;;;;;;19.70;7.93;;;;;;;;;;5028427;28;20315;-72
2023/04/26 08:22:42;;;;;;;19.85;6.55;;;;;;;;;;5030515;28;20029;-72
2023/04/26 08:25:09;;;;;;;18.60;7.22;;;;;;;;;;5031576;28;20033;-73
2023/04/26 08:27:35;;;;;;;21.00;8.48;;;;;;;;;;5025974;28;20131;-73
2023/04/26 08:30:00;;;;;;;20.08;7.07;;;;;;;;;;5030673;28;20030;-73
2023/04/26 08:32:26;;;;;;;26.13;7.88;;;;;;;;;;5028334;28;20985;-72
2023/04/26 08:34:51;;;;;;;17.70;6.35;;;;;;;;;;5030074;28;20046;-73
2023/04/26 08:37:16;;;;;;;22.75;6.65;;;;;;;;;;5027923;28;20382;-73
2023/04/26 08:39:41;;;;;;;25.73;6.80;;;;;;;;;;5030546;28;20017;-72
2023/04/26 08:42:13;;;;;;;22.38;7.05;;;;;;;;;;5031356;28;20021;-72
2023/04/26 08:44:40;;;;;;;19.92;6.38;;;;;;;;;;5030753;28;20029;-73
2023/04/26 08:47:07;;;;;;;21.98;6.72;;;;;;;;;;5030038;28;20096;-72
2023/04/26 08:49:40;;;;;;;14.95;6.40;;;;;;;;;;5030074;28;20021;-72
2023/04/26 08:52:07;;;;;;;18.95;6.30;;;;;;;;;;5032314;28;20033;-72
2023/04/26 08:54:33;;;;;;;18.83;6.85;;;;;;;;;;5029617;28;20021;-72
2023/04/26 08:56:59;;;;;;;23.13;7.63;;;;;;;;;;5030192;28;20024;-72
2023/04/26 08:59:25;;;;;;;23.35;8.57;;;;;;;;;;5028536;28;20300;-72
2023/04/26 09:01:51;;;;;;;15.43;6.88;;;;;;;;;;5031139;28;20104;-72
2023/04/26 09:04:16;;;;;;;22.02;7.22;;;;;;;;;;5029420;28;20013;-72
2023/04/26 09:06:42;;;;;;;14.43;5.80;;;;;;;;;;5030573;28;20136;-72
2023/04/26 09:09:08;;;;;;;26.90;7.03;;;;;;;;;;5034252;28;20279;-73
2023/04/26 09:11:51;;;;;;;14.68;5.63;;;;;;;;;;5030778;28;20474;-73
2023/04/26 09:14:17;;;;;;;21.25;7.75;;;;;;;;;;5027534;28;20044;-72
2023/04/26 09:16:42;;;;;;;26.60;7.40;;;;;;;;;;5029979;28;20052;-73
2023/04/26 09:19:07;;;;;;;21.67;7.65;;;;;;;;;;5030039;28;20475;-73
2023/04/26 09:21:32;;;;;;;21.70;7.40;;;;;;;;;;5030982;28;20025;-73
2023/04/26 09:23:58;;;;;;;13.57;6.40;;;;;;;;;;5029748;28;20545;-72
2023/04/26 09:26:23;;;;;;;18.98;7.15;;;;;;;;;;5030533;28;20375;-72
2023/04/26 09:28:49;;;;;;;13.82;4.90;;;;;;;;;;5028987;28;20448;-72
2023/04/26 09:31:34;;;;;;;17.85;3.92;;;;;;;;;;5028972;28;20025;-72
2023/04/26 09:33:59;;;;;;;13.98;4.20;;;;;;;;;;5028300;28;20501;-72
2023/04/26 09:36:25;;;;;;;9.73;3.75;;;;;;;;;;5030303;28;20025;-72
2023/04/26 09:38:50;;;;;;;11.02;4.47;;;;;;;;;;5028374;28;20021;-72
2023/04/26 09:41:15;;;;;;;10.85;2.58;;;;;;;;;;5029974;28;20021;-72
2023/04/26 09:43:41;;;;;;;7.22;2.90;;;;;;;;;;5030001;28;20552;-73
2023/04/26 09:46:06;;;;;;;11.38;3.80;;;;;;;;;;5029374;28;20108;-73
2023/04/26 09:48:33;;;;;;;19.87;4.43;;;;;;;;;;5028384;28;20017;-73
2023/04/26 09:51:07;;;;;;;7.72;3.92;;;;;;;;;;5029158;28;20279;-73
2023/04/26 09:53:36;;;;;;;11.55;3.60;;;;;;;;;;5028747;28;20049;-72
2023/04/26 09:56:08;;;;;;;8.32;2.72;;;;;;;;;;5027864;28;20021;-72
2023/04/26 09:58:35;;;;;;;8.95;3.38;;;;;;;;;;5029473;28;20068;-72
2023/04/26 10:01:01;;;;;;;12.75;3.75;;;;;;;;;;5032705;28;20021;-72
2023/04/26 10:03:27;;;;;;;17.05;3.58;;;;;;;;;;5027754;28;20041;-72
2023/04/26 10:05:52;;;;;;;11.27;3.20;;;;;;;;;;5028257;28;20021;-72
2023/04/26 10:08:17;;;;;;;12.55;3.10;;;;;;;;;;5030331;28;20014;-72
2023/04/26 10:10:44;;;;;;;10.65;3.72;;;;;;;;;;5028583;28;20044;-70
2023/04/26 10:13:09;;;;;;;10.02;3.05;;;;;;;;;;5029959;28;20029;-72
2023/04/26 10:15:36;;;;;;;11.30;2.88;;;;;;;;;;5030838;28;20062;-73
2023/04/26 10:18:01;;;;;;;9.15;3.03;;;;;;;;;;5029608;28;20104;-72
2023/04/26 10:20:27;;;;;;;7.00;3.13;;;;;;;;;;5029518;28;20100;-72
2023/04/26 10:22:59;;;;;;;15.00;5.15;;;;;;;;;;5029661;28;20310;-71
2023/04/26 10:25:33;;;;;;;12.23;3.40;;;;;;;;;;5029652;28;20032;-71
2023/04/26 10:27:58;;;;;;;8.00;2.72;;;;;;;;;;5029575;28;20029;-70
2023/04/26 10:30:23;;;;;;;9.80;4.07;;;;;;;;;;5029831;28;20105;-70
2023/04/26 10:32:55;;;;;;;8.35;2.90;;;;;;;;;;5029262;28;20244;-70
2023/04/26 10:35:21;;;;;;;11.13;3.17;;;;;;;;;;5026810;28;20017;-72
2023/04/26 10:37:58;;;;;;;9.73;4.20;;;;;;;;;;5029458;28;20010;-70
2023/04/26 10:40:27;;;;;;;14.35;3.13;;;;;;;;;;5024263;28;20478;-72
2023/04/26 10:43:26;;;;;;;7.70;2.50;;;;;;;;;;5026444;28;20072;-70
2023/04/26 10:45:53;;;;;;;10.35;3.42;;;;;;;;;;5026551;28;20018;-70
2023/04/26 10:48:20;;;;;;;10.05;3.28;;;;;;;;;;5029083;28;20685;-70
2023/04/26 10:51:00;;;;;;;8.27;2.58;;;;;;;;;;5029174;28;20033;-70
2023/04/26 10:53:29;;;;;;;10.80;2.78;;;;;;;;;;5026502;28;20053;-70
2023/04/26 10:55:54;;;;;;;14.00;3.85;;;;;;;;;;5028908;28;20044;-70
2023/04/26 10:58:29;;;;;;;8.50;2.78;;;;;;;;;;5027604;28;20471;-70
2023/04/26 11:01:05;;;;;;;16.30;2.95;;;;;;;;;;5024407;28;20084;-71
2023/04/26 11:03:31;;;;;;;17.08;3.25;;;;;;;;;;5026198;28;20154;-73
2023/04/26 11:05:57;;;;;;;13.82;3.90;;;;;;;;;;5029165;28;20108;-70
2023/04/26 11:08:26;;;;;;;8.15;4.10;;;;;;;;;;5025521;28;20446;-70
2023/04/26 11:10:57;;;;;;;12.85;3.10;;;;;;;;;;5030416;28;20127;-70
2023/04/26 11:13:22;;;;;;;8.60;2.88;;;;;;;;;;5026679;28;20045;-70
2023/04/26 11:15:51;;;;;;;11.27;3.30;;;;;;;;;;5029116;28;20053;-69
2023/04/26 11:18:20;;;;;;;6.80;2.78;;;;;;;;;;5027286;28;20272;-70
2023/04/26 11:20:45;;;;;;;8.23;3.13;;;;;;;;;;5032707;28;20021;-69
2023/04/26 11:23:10;;;;;;;9.32;2.72;;;;;;;;;;5033979;28;20075;-69
2023/04/26 11:25:37;;;;;;;6.57;2.30;;;;;;;;;;5032450;28;20032;-70
2023/04/26 11:28:03;;;;;;;12.27;2.80;;;;;;;;;;5031411;28;20021;-71
2023/04/26 11:30:31;;;;;;;7.55;3.00;;;;;;;;;;5031886;28;20112;-69
2023/04/26 11:32:59;;;;;;;9.98;3.22;;;;;;;;;;5031050;28;20029;-71
2023/04/26 11:35:25;;;;;;;12.82;4.40;;;;;;;;;;5031461;28;20033;-69
2023/04/26 11:37:51;;;;;;;6.68;2.20;;;;;;;;;;5035168;28;20032;-70
2023/04/26 11:40:16;;;;;;;11.65;3.25;;;;;;;;;;5031990;28;20022;-70
2023/04/26 11:42:42;;;;;;;10.80;2.65;;;;;;;;;;5032090;28;20469;-70
2023/04/26 11:45:08;;;;;;;10.00;3.60;;;;;;;;;;5030442;28;20064;-70
2023/04/26 11:47:33;;;;;;;11.38;3.17;;;;;;;;;;5031566;28;20506;-70
2023/04/26 11:50:00;;;;;;;8.50;2.50;;;;;;;;;;5031476;28;20037;-70
2023/04/26 11:52:25;;;;;;;9.48;3.78;;;;;;;;;;5033296;28;20025;-70
2023/04/26 11:54:59;;;;;;;7.78;2.90;;;;;;;;;;5031298;28;20074;-70
2023/04/26 11:57:29;;;;;;;8.02;3.38;;;;;;;;;;5030856;28;20101;-70
2023/04/26 12:00:05;;;;;;;8.45;3.90;;;;;;;;;;5033774;28;20037;-70
2023/04/26 12:02:30;;;;;;;29.55;3.63;;;;;;;;;;5031317;28;20030;-70
2023/04/26 12:04:58;;;;;;;6.75;2.70;;;;;;;;;;5029552;28;20394;-70
2023/04/26 12:07:24;;;;;;;10.20;3.08;;;;;;;;;;5031370;28;20022;-70
2023/04/26 12:09:49;;;;;;;8.55;3.03;;;;;;;;;;5033925;28;20022;-70
2023/04/26 12:12:15;;;;;;;14.63;2.93;;;;;;;;;;5031617;28;20032;-70
2023/04/26 12:14:40;;;;;;;8.43;3.25;;;;;;;;;;5032027;28;20272;-70
2023/04/26 12:17:06;;;;;;;7.45;3.10;;;;;;;;;;5031150;28;20382;-70
2023/04/26 12:19:37;;;;;;;13.20;2.90;;;;;;;;;;5031844;28;20013;-70
2023/04/26 12:22:03;;;;;;;11.52;3.15;;;;;;;;;;5030440;28;20119;-70
2023/04/26 12:24:32;;;;;;;11.77;3.30;;;;;;;;;;5031696;28;20155;-70
2023/04/26 12:26:57;;;;;;;8.23;3.05;;;;;;;;;;5030602;28;20368;-70
2023/04/26 12:29:22;;;;;;;8.60;2.65;;;;;;;;;;5029881;28;20028;-70
2023/04/26 12:31:48;;;;;;;11.27;2.25;;;;;;;;;;5028646;28;20014;-70
2023/04/26 12:34:13;;;;;;;8.98;3.22;;;;;;;;;;5031569;28;20045;-70
2023/04/26 12:36:39;;;;;;;12.17;2.93;;;;;;;;;;5029574;28;20111;-70
2023/04/26 12:39:04;;;;;;;14.88;3.60;;;;;;;;;;5031153;28;20791;-70
2023/04/26 12:41:29;;;;;;;12.82;3.15;;;;;;;;;;5030578;28;20030;-70
2023/04/26 12:43:55;;;;;;;6.72;2.58;;;;;;;;;;5031114;28;20032;-70
2023/04/26 12:46:20;;;;;;;9.80;3.30;;;;;;;;;;5030794;28;20028;-70
2023/04/26 12:48:45;;;;;;;9.77;3.33;;;;;;;;;;5026436;28;20053;-70
2023/04/26 12:51:11;;;;;;;10.23;3.90;;;;;;;;;;5030045;28;20692;-70
2023/04/26 12:53:36;;;;;;;8.93;3.05;;;;;;;;;;5030776;28;20261;-70
2023/04/26 12:56:01;;;;;;;8.10;3.65;;;;;;;;;;5029758;28;20112;-70
2023/04/26 12:58:27;;;;;;;8.77;2.83;;;;;;;;;;5030150;28;20053;-70
2023/04/26 13:00:53;;;;;;;11.15;4.43;;;;;;;;;;5027430;28;20571;-70
2023/04/26 13:03:18;;;;;;;13.95;4.03;;;;;;;;;;5032188;28;20105;-70
2023/04/26 13:05:43;;;;;;;13.73;3.37;;;;;;;;;;5027819;28;20069;-70
2023/04/26 13:08:08;;;;;;;9.32;3.97;;;;;;;;;;5032891;28;20276;-70
2023/04/26 13:10:33;;;;;;;12.52;4.50;;;;;;;;;;5028767;28;20378;-70
2023/04/26 13:12:59;;;;;;;7.70;3.72;;;;;;;;;;5028959;28;20388;-70
2023/04/26 13:15:25;;;;;;;12.00;4.03;;;;;;;;;;5030038;28;20017;-70
2023/04/26 13:17:51;;;;;;;11.98;4.65;;;;;;;;;;5027721;28;20641;-70
2023/04/26 13:20:16;;;;;;;10.55;4.82;;;;;;;;;;5030778;28;20021;-70
2023/04/26 13:22:42;;;;;;;11.00;3.45;;;;;;;;;;5031276;28;20076;-70
2023/04/26 13:25:07;;;;;;;13.15;3.70;;;;;;;;;;5029289;28;20100;-70
2023/04/26 13:27:32;;;;;;;8.85;3.80;;;;;;;;;;5028961;28;20025;-70
2023/04/26 13:29:57;;;;;;;15.47;4.53;;;;;;;;;;5027635;28;20115;-70
2023/04/26 13:32:22;;;;;;;9.40;3.60;;;;;;;;;;5029796;28;20276;-70
2023/04/26 13:34:48;;;;;;;22.57;4.43;;;;;;;;;;5028051;28;20268;-70
2023/04/26 13:37:16;;;;;;;11.40;3.60;;;;;;;;;;5030058;28;20284;-70
2023/04/26 13:39:41;;;;;;;7.60;3.90;;;;;;;;;;5029825;28;20251;-70
2023/04/26 13:42:06;;;;;;;8.83;3.40;;;;;;;;;;5029157;28;20040;-70
2023/04/26 13:44:32;;;;;;;14.70;4.65;;;;;;;;;;5028867;28;20272;-70
2023/04/26 13:46:59;;;;;;;11.45;3.53;;;;;;;;;;5029009;28;20368;-70
2023/04/26 13:49:25;;;;;;;6.10;3.22;;;;;;;;;;5028889;28;20112;-70
2023/04/26 13:51:51;;;;;;;9.98;3.42;;;;;;;;;;5028807;28;20101;-70
2023/04/26 13:54:16;;;;;;;7.93;3.40;;;;;;;;;;5029817;28;20041;-70
2023/04/26 13:56:41;;;;;;;10.10;4.30;;;;;;;;;;5029884;28;20075;-70
2023/04/26 13:59:07;;;;;;;19.30;4.50;;;;;;;;;;5027043;28;20132;-70
2023/04/26 14:01:32;;;;;;;12.90;3.53;;;;;;;;;;5029873;28;20773;-70
2023/04/26 14:03:58;;;;;;;8.75;3.00;;;;;;;;;;5026648;28;20276;-70
2023/04/26 14:06:23;;;;;;;11.63;3.97;;;;;;;;;;5027689;28;20028;-70
2023/04/26 14:08:48;;;;;;;9.53;2.97;;;;;;;;;;5031803;28;20350;-70
2023/04/26 14:11:13;;;;;;;6.80;3.10;;;;;;;;;;5028969;28;20252;-70
2023/04/26 14:13:39;;;;;;;6.60;3.10;;;;;;;;;;5030545;28;20033;-70
2023/04/26 14:16:05;;;;;;;11.40;3.38;;;;;;;;;;5030551;28;20022;-70
2023/04/26 14:18:30;;;;;;;13.82;3.25;;;;;;;;;;5029070;28;20021;-70
2023/04/26 14:20:55;;;;;;;3.75;2.00;;;;;;;;;;5026512;28;20025;-70
2023/04/26 14:23:21;;;;;;;4.80;2.38;;;;;;;;;;5029421;28;20018;-70
2023/04/26 14:25:50;;;;;;;11.23;3.27;;;;;;;;;;5029032;28;20025;-70